Airfield :







YOU CAN JOIN US ON...

 
LOGIN :

Register | Disclaimer

   EN    FR    IT 

 









Legend :    VFR   Marginal VFR   IFR   Intensive IFR   Very Intensive IFR
Visi :
Ceiling :
>= 8 km
>= 3000ft
5 to 8 km
1000 to 3000 ft
1500m to 5 km
500 to 1000 ft
800 to 1500m
200 to 500 ft
< 800m
< 200 ft
Symbols :   Thunderstorms  Fog  Heavy snow  Heavy precipitations  Wind > 20 kt






- Airport Elevation : 38 ft
- IATA code : YMH


CYMH - Mary's Harbour

CURRENT METAR :
  • 162143Z AUTO 26013G22KT 250V310 9SM -SN BKN050 BKN080 M06/M11 A2918 RMK SLP882

EXPIRED METARs :
  • 162100Z AUTO 26009G16KT 9SM CLR M06/M11 A2919 RMK SLP885
  • 162000Z AUTO 28012G25KT 9SM FEW029 M05/M11 A2919 RMK SLP888
  • 161944Z AUTO 26014G20KT 9SM SCT026 M05/M10 A2920 RMK SLP889
  • 161929Z AUTO 27016KT 9SM -SN BKN026 M05/M10 A2919 RMK SLP888
  • 161900Z AUTO 26020G25KT 9SM SCT028 M04/M10 A2919 RMK SLP887

TAF AMD TAF CYMH
Valid from the 16 at 21:00 until the 17 at 04:00 UTC


162132Z 1621/1704 26015G25KT P6SM BKN130
TEMPO 1621/1623 5SM -SHSN BKN020
BECMG 1621/1623 27020G40KT
FM162300 27020G30KT 6SM -SN BKN030 OVC060
TEMPO 1623/1704 2SM -SHSN BLSN OVC020 RMK FCST BASED ON AUTO OBS. NXT FCST BY 170200Z



MET'MAP, your aeronautical weather chart ! - Copyright ORBIFLY December 2007 - Disclaimer

ORBIFLY MET'MAP TEAM :

Programming & Development : Alexandra Zaïnal
Concept & Development : Baudouin d'Aumeries
Co-Development & Prog : Marc-Olivier Méhu
Technical & hardware support : Manuel Goepfert

Contact : metmap@orbifly.com




SOURCES & CREDITS :

   NOAA